Latest Coastal Weather Observations for Lockhart River

IDQ60701

Issued at 7:42 pm EST Sunday 11 December 2016 (issued every 10 minutes, with the page automatically refreshed every 10 minutes)

About coastal observations | Map of coastal stations | Coastal observations for QLD | Marine services | Other Formats
Station Details ID: 028008 Name: LOCKHART RIVER AIRPORT Lat: -12.79 Lon: 143.30 Height: 18.5 m
Data from the previous 72 hours. | See also: Recent months at Lockhart River
Date/Time
EST
Temp
°C
Wind Pressure Rain since
9am
mm
Weather Cloud Vis
km
Sea
Height
m
Swell
Dir  Spd
kts
Gust
kts
hPa Trend Height
m
Period
s
Dir
11/07:30pm 28.2 SE 9 13 1009.6 - 0.0 - Partly cloudy - - - - -
11/07:00pm 28.6 ESE 10 15 1009.4 - 0.0 - Partly cloudy - - - - -
11/06:30pm 29.1 ESE 10 16 1008.9 - 0.0 - Partly cloudy - - - - -
11/06:00pm 29.3 ESE 11 16 1008.8 - 0.0 - Partly cloudy - - - - -
11/05:30pm 29.7 ESE 13 19 1008.1 - 0.0 - Partly cloudy - - - - -
11/05:00pm 30.5 E 12 17 1008.0 - 0.0 - Partly cloudy - - - - -
11/04:30pm 30.9 ESE 11 17 1007.8 - 0.0 - Partly cloudy - - - - -
11/04:00pm 30.7 E 12 18 1007.7 - 0.0 - - - - - - -
11/03:30pm 31.7 ESE 12 17 1007.9 - 0.0 - - - - - - -
11/03:00pm 31.1 E 14 19 1008.0 - 0.0 - - - - - - -
11/02:30pm 31.1 E 13 24 1008.4 - 0.0 - Partly cloudy - - - - -
11/02:00pm 31.4 E 15 21 1008.7 - 0.0 - - - - - - -
11/01:30pm 32.2 E 13 18 1009.0 - 0.0 - Partly cloudy - - - - -
11/01:00pm 31.7 E 13 21 1009.1 - 0.0 - - - - - - -
11/12:30pm 31.1 E 13 20 1009.5 - 0.0 - - - - - - -
11/12:00pm 31.6 ESE 13 21 1009.6 - 0.0 - Mostly clear - - - - -
11/11:30am 31.6 E 11 19 1009.8 - 0.0 - Partly cloudy - - - - -
11/11:00am 31.0 ESE 12 18 1010.0 - 0.0 - Partly cloudy - - - - -
11/10:30am 30.9 E 12 19 1010.2 - 0.0 - Partly cloudy - - - - -
11/10:00am 30.8 ESE 13 19 1010.3 - 0.0 - Partly cloudy - - - - -
11/09:30am 30.9 E 12 21 1010.3 - 0.0 - Partly cloudy - - - - -
11/09:00am 30.3 E 11 17 1010.0 - 0.0 - Partly cloudy - - - - -
11/08:30am 30.0 ESE 11 19 1010.0 - 0.0 - Partly cloudy - - - - -
11/08:00am 28.7 ESE 13 19 1010.0 - 0.0 - Partly cloudy - - - - -
11/07:30am 29.0 ESE 12 18 1009.9 - 0.0 - Partly cloudy - - - - -
11/07:00am 28.0 ESE 9 14 1009.6 - 0.0 - Partly cloudy - - - - -
11/06:30am 26.1 SSE 2 4 1009.6 - 0.0 - Partly cloudy - - - - -
11/06:00am 25.6 NNE 3 4 1009.2 - 0.0 - Cloudy - - - - -
11/05:30am 26.0 S 5 8 1009.0 - 0.0 - Partly cloudy - - - - -
11/05:00am 27.1 SE 8 11 1008.6 - 0.0 - Partly cloudy - - - - -
11/04:30am 27.1 SE 7 9 1007.9 - 0.0 - Partly cloudy - - - - -
11/04:00am 27.3 ESE 7 12 1007.5 - 0.0 - Partly cloudy - - - - -
11/03:30am 27.3 ESE 8 12 1007.5 - 0.0 - Partly cloudy - - - - -
11/03:00am 27.3 E 9 15 1007.6 - 0.0 - Mostly clear - - - - -
11/02:30am 27.4 ESE 8 11 1008.0 - 0.0 - Partly cloudy - - - - -
11/02:00am 27.3 ESE 7 11 1008.1 - 0.0 - Partly cloudy - - - - -
11/01:30am 27.1 ESE 7 12 1008.4 - 0.0 - Partly cloudy - - - - -
11/01:00am 26.9 ESE 6 10 1008.7 - 0.0 - - - - - - -
11/12:30am 27.0 ESE 7 9 1009.0 - 0.0 - Partly cloudy - - - - -
11/12:00am 27.2 ESE 7 11 1009.6 - 0.0 - Partly cloudy - - - - -
 
Date/Time
EST
Temp
°C
Wind Pressure Rain since
9am
mm
Weather Cloud Vis
km
Sea
Height
m
Swell
Dir  Spd
kts
Gust
kts
hPa Trend Height
m
Period
s
Dir
10/11:30pm 27.3 ESE 8 11 1009.9 - 0.0 - Partly cloudy - - - - -
10/11:00pm 27.4 ESE 8 12 1010.0 - 0.0 - - - - - - -
10/10:30pm 27.3 ESE 9 13 1010.0 - 0.0 - - - - - - -
10/10:00pm 27.2 ESE 8 11 1009.8 - 0.0 - - - - - - -
10/09:30pm 27.2 ESE 7 9 1009.7 - 0.0 - - - - - - -
10/09:00pm 27.4 SE 7 9 1009.4 - 0.0 - - - - - - -
10/08:30pm 27.8 SE 7 10 1009.3 - 0.0 - - - - - - -
10/08:00pm 27.7 ESE 6 8 1009.1 - 0.0 - - - - - - -
10/07:30pm 27.9 ESE 7 11 1008.9 - 0.0 - Partly cloudy - - - - -
10/07:00pm 28.3 ESE 7 10 1008.8 - 0.0 - Partly cloudy - - - - -
10/06:30pm 28.6 ESE 10 13 1008.6 - 0.0 - - - - - - -
10/06:00pm 29.5 SE 12 16 1008.4 - 0.0 - - - - - - -
10/05:30pm 29.7 ESE 11 15 1008.2 - 0.0 - - - - - - -
10/05:00pm 30.6 ESE 11 16 1008.0 - 0.0 - Partly cloudy - - - - -
10/04:30pm 30.8 E 12 18 1007.9 - 0.0 - - - - - - -
10/04:00pm 30.9 ESE 12 17 1008.0 - 0.0 - - - - - - -
10/03:30pm 30.4 E 12 17 1008.3 - 0.0 - Partly cloudy - - - - -
10/03:00pm 31.3 E 12 20 1008.4 - 0.0 - - - - - - -
10/02:30pm 30.5 E 12 17 1008.9 - 0.0 - Partly cloudy - - - - -
10/02:00pm 30.8 E 12 17 1009.1 - 0.0 - Partly cloudy - - - - -
10/01:30pm 31.1 E 11 17 1009.7 - 0.0 - - - - - - -
10/01:00pm 31.4 E 11 18 1010.1 - 0.0 - - - - - - -
10/12:30pm 31.5 ESE 13 18 1010.5 - 0.0 - Partly cloudy - - - - -
10/12:00pm 31.4 E 11 17 1010.9 - 0.0 - Mostly clear - - - - -
10/11:30am 31.4 E 11 17 1010.9 - 0.0 - Partly cloudy - - - - -
10/11:00am 31.8 E 10 16 1011.1 - 0.0 - Partly cloudy - - - - -
10/10:30am 31.4 E 9 14 1011.3 - 0.0 - Partly cloudy - - - - -
10/10:00am 30.9 ESE 10 15 1011.4 - 0.0 - Partly cloudy - - - - -
10/09:30am 30.9 ESE 9 13 1011.2 - 0.0 - - - - - - -
10/09:00am 31.1 ESE 12 16 1011.1 - 0.0 - Cloudy - - - - -
10/08:30am 29.4 ESE 10 14 1010.8 - 0.0 - Partly cloudy - - - - -
10/08:00am 28.9 SE 10 15 1010.5 - 0.0 - Partly cloudy - - - - -
10/07:30am 27.3 SSW 5 6 1010.2 - 0.0 - Partly cloudy - - - - -
10/07:00am 26.7 S 2 4 1010.1 - 0.0 - Partly cloudy - - - - -
10/06:30am 25.9 CALM 0 0 1009.5 - 0.0 - Partly cloudy - - - - -
10/06:00am 25.4 CALM 0 0 1009.3 - 0.0 - Cloudy - - - - -
10/05:30am 25.5 CALM 0 0 1008.9 - 0.0 - Partly cloudy - - - - -
10/05:00am 25.5 SSW 1 4 1008.7 - 0.0 - Partly cloudy - - - - -
10/04:53am 25.5 SSW 4 4 1008.6 - 0.0 - Partly cloudy - - - - -
10/04:39am 25.7 SSW 3 3 1008.5 - 0.0 - Partly cloudy - - - - -
10/04:30am 25.8 SSW 4 5 1008.6 - 0.0 - Partly cloudy - - - - -
10/04:00am 25.8 SSW 3 4 1008.3 - 0.0 - Partly cloudy - - - - -
10/03:30am 25.9 N 3 4 1008.1 - 0.0 - Cloudy - - - - -
10/03:00am 25.7 W 2 5 1008.0 - 0.0 - Cloudy - - - - -
10/02:30am 27.0 ESE 3 7 1008.2 - 0.0 - Partly cloudy - - - - -
10/02:00am 27.4 ESE 5 6 1008.2 - 0.0 - Partly cloudy - - - - -
10/01:30am 27.5 E 5 7 1008.5 - 0.0 - Partly cloudy - - - - -
10/01:00am 27.5 E 6 11 1009.0 - 0.0 - Partly cloudy - - - - -
10/12:30am 27.5 E 6 10 1009.3 - 0.0 - Partly cloudy - - - - -
10/12:00am 27.6 E 8 11 1009.4 - 0.0 - Mostly clear - - - - -
 
Date/Time
EST
Temp
°C
Wind Pressure Rain since
9am
mm
Weather Cloud Vis
km
Sea
Height
m
Swell
Dir  Spd
kts
Gust
kts
hPa Trend Height
m
Period
s
Dir
09/11:30pm 27.6 E 7 12 1009.7 - 0.0 - Partly cloudy - - - - -
09/11:00pm 27.5 E 6 9 1009.8 - 0.0 - Partly cloudy - - - - -
09/10:30pm 27.7 E 7 10 1009.8 - 0.0 - Partly cloudy - - - - -
09/10:00pm 27.6 E 5 8 1009.8 - 0.0 - Partly cloudy - - - - -
09/09:30pm 27.3 E 5 8 1009.7 - 0.0 - Partly cloudy - - - - -
09/09:00pm 27.3 E 4 6 1009.5 - 0.0 - - - - - - -
09/08:30pm 27.3 ENE 4 5 1009.1 - 0.0 - Partly cloudy - - - - -
09/08:00pm 27.5 ESE 5 8 1008.7 - 0.0 - - - - - - -
09/07:30pm 27.7 ESE 5 9 1008.5 - 0.0 - - - - - - -
09/07:00pm 28.0 ESE 6 9 1008.1 - 0.0 - - - - - - -
09/06:30pm 28.4 E 8 12 1007.8 - 0.0 - - - - - - -
09/06:00pm 29.2 E 8 13 1007.6 - 0.0 - - - - - - -
09/05:30pm 29.4 E 9 15 1007.3 - 0.0 - - - - - - -
09/05:00pm 30.3 E 11 16 1007.1 - 0.0 - - - - - - -
09/04:30pm 30.8 E 9 17 1007.0 - 0.0 - - - - - - -
09/04:00pm 31.0 E 9 15 1006.8 - 0.0 - Partly cloudy - - - - -
09/03:30pm 30.7 ENE 11 15 1006.8 - 0.0 - - - - - - -
09/03:00pm 31.4 E 12 17 1006.9 - 0.0 - - - - - - -
09/02:30pm 31.5 E 11 17 1007.3 - 0.0 - - - - - - -
09/02:00pm 31.5 ENE 10 16 1007.5 - 0.0 - - - - - - -
09/01:30pm 31.3 ESE 11 16 1007.9 - 0.0 - - - - - - -
09/01:00pm 31.3 E 11 18 1008.4 - 0.0 - - - - - - -
09/12:30pm 31.2 E 11 16 1008.8 - 0.0 - - - - - - -
09/12:00pm 31.3 ESE 12 15 1009.0 - 0.0 - Mostly clear - - - - -
09/11:30am 31.1 E 10 17 1009.3 - 0.0 - Partly cloudy - - - - -
09/11:00am 31.2 ESE 11 18 1009.6 - 0.0 - - - - - - -
09/10:30am 32.0 E 11 17 1009.8 - 0.0 - Partly cloudy - - - - -
09/10:00am 30.8 ESE 10 14 1010.1 - 0.0 - - - - - - -
09/09:30am 30.9 E 10 14 1010.1 - 0.0 - Partly cloudy - - - - -
09/09:00am 29.9 ESE 10 15 1010.2 - 0.2 - Partly cloudy - - - - -
09/08:30am 29.2 ESE 9 14 1009.9 - 0.2 - Partly cloudy - - - - -
09/08:00am 28.0 SSE 6 9 1009.7 - 0.2 - Partly cloudy - - - - -
09/07:30am 26.9 SSE 5 7 1009.5 - 0.2 - - - - - - -
09/07:00am 25.7 SE 5 6 1009.3 - 0.2 - Partly cloudy - - - - -
09/06:30am 24.6 SSE 3 4 1009.1 - 0.2 - Partly cloudy - - - - -
09/06:00am 24.4 CALM 0 4 1008.5 - 0.2 - - - - - - -
09/05:30am 24.6 SSE 4 5 1008.3 - 0.2 - - - - - - -
09/05:00am 25.3 SE 3 5 1008.1 - 0.2 - Partly cloudy - - - - -
09/04:30am 25.3 SSE 3 4 1007.8 - 0.2 - Partly cloudy - - - - -
09/04:00am 25.5 S 4 5 1007.7 - 0.2 - Partly cloudy - - - - -
09/03:30am 26.9 ESE 5 8 1007.6 - 0.2 - Partly cloudy - - - - -
09/03:00am 27.0 ESE 7 9 1007.6 - 0.2 - Partly cloudy - - - - -
09/02:30am 27.2 SE 7 9 1007.5 - 0.2 - Partly cloudy - - - - -
09/02:00am 27.3 ESE 6 10 1007.8 - 0.2 - Partly cloudy - - - - -
09/01:30am 27.4 ESE 6 9 1008.1 - 0.2 - Partly cloudy - - - - -
09/01:00am 27.6 ESE 7 10 1008.3 - 0.2 - Partly cloudy - - - - -
09/12:30am 27.7 ESE 6 12 1008.7 - 0.2 - Partly cloudy - - - - -
09/12:00am 27.7 ESE 7 13 1009.1 - 0.2 - Mostly cloudy - - - - -
 
Date/Time
EST
Temp
°C
Wind Pressure Rain since
9am
mm
Weather Cloud Vis
km
Sea
Height
m
Swell
Dir  Spd
kts
Gust
kts
hPa Trend Height
m
Period
s
Dir
08/11:30pm 27.8 ESE 8 13 1009.3 - 0.2 - Partly cloudy - - - - -
08/11:00pm 27.8 ESE 7 12 1009.2 - 0.2 - Partly cloudy - - - - -
08/10:30pm 28.0 ESE 9 13 1009.2 - 0.2 - Partly cloudy - - - - -
08/10:00pm 28.0 ESE 7 11 1009.0 - 0.2 - Partly cloudy - - - - -
08/09:30pm 28.2 ESE 9 12 1008.9 - 0.2 - Partly cloudy - - - - -
08/09:00pm 28.0 ESE 8 15 1008.4 - 0.2 - Cloudy - - - - -
08/08:30pm 28.1 ESE 8 13 1008.2 - 0.2 - Partly cloudy - - - - -
08/08:00pm 28.2 ESE 7 11 1008.2 - 0.2 - Partly cloudy - - - - -

Other Formats:

Comma delimited format used in spreadsheet applications
http://www.bom.gov.au/fwo/IDQ60701/IDQ60701.94186.axf

JavaScript Object Notation format (JSON) in row-major order
http://www.bom.gov.au/fwo/IDQ60701/IDQ60701.94186.json